GLACIER NATIONAL PARK
LOGAN PASS HOURLY WEATHER ROUNDUP
LOGAN_PASS 10/21/2017
CLICK HERE TO VIEW GRAPH
All data is provisional.
Wind sensor is not heated. Riming can occur.
        DATE  TIME Temp F  % RH Watt/m Wind Speed Wind Dir Max Gust Press InHg     BATT
                                                                                         
                     (1HR) (1HR)     AVG      (1HR)    (1HR)      MAX        AVG      AVG

  10/21/2017 14:00      24    78  305.90         22      292       36      29.86    12.26
  10/21/2017 13:00      23    80  257.20         27      288       41      29.87    12.21
  10/21/2017 12:00      23    84  239.20         24      288       44      29.85    12.15
  10/21/2017 11:00      23    89   93.70         17      295       37      29.85    12.12
  10/21/2017 10:00      24    89   83.00         20      279       35      29.84    12.12
  10/21/2017 09:00      25    88   35.72         15      260       33      29.83    12.10
  10/21/2017 08:00      25    89    0.11         17      286       30      29.82    12.10
  10/21/2017 07:00      25    89    0.00         19      276       40      29.82    12.12
  10/21/2017 06:00      25    90    0.00         18      275       36      29.80    12.11
  10/21/2017 05:00      25    90    0.00         16      268       32      29.79    12.12
  10/21/2017 04:00      25    91    0.00         13      282       21      29.78    12.12
  10/21/2017 03:00      26    91    0.00         15      299       33      29.77    12.12
  10/21/2017 02:00      26    92    0.00         13      288       26      29.74    12.12
  10/21/2017 01:00      26    92    0.00         14      308       26      29.74    12.12
  10/20/2017 24:00      26    88    0.00         17      316       32      29.72    12.13
  10/20/2017 23:00      26    86    0.00         18      305       35      29.70    12.13
  10/20/2017 22:00      27    90    0.00         17      292       35      29.68    12.13
  10/20/2017 21:00      27    92    0.00         23      274       43      29.67    12.12
  10/20/2017 20:00      28    84    0.00         27      273       45      29.64    12.13
  10/20/2017 19:00      28    88    3.29         26      277       45      29.62    12.13
  10/20/2017 18:00      28    90   22.29         27      278       45      29.59    12.14
  10/20/2017 17:00      28    90   54.78         24      286       43      29.56    12.15
  10/20/2017 16:00      28    92  132.00         19      270       31      29.53    12.18
  10/20/2017 15:00      28    90  139.30         16      278       29      29.54    12.19
  10/20/2017 14:00      29    92   93.50         14      283       26      29.52    12.17
  10/20/2017 13:00      29    94   99.90         14      287       21      29.50    12.18
  10/20/2017 12:00      31    94  148.60         18      281       31      29.50    12.19
  10/20/2017 11:00      31    93  132.10         11      265       27      29.48    12.16
  10/20/2017 10:00      32    93   23.68          6      274       12      29.47    12.14
  10/20/2017 09:00      34    82    3.50          7      286       12      29.48    12.14
  10/20/2017 08:00      36    71    0.05         13      277       22      29.48    12.14
  10/20/2017 07:00      38    60    0.00         16      283       28      29.49    12.14
  10/20/2017 06:00      39    49    0.00         10      284       17      29.49    12.14
  10/20/2017 05:00      43    32    0.00          6      233       17      29.49    12.15
  10/20/2017 04:00      47    23    0.00          8      159       16      29.49    12.15
  10/20/2017 03:00      46    26    0.00          7      152       28      29.51    12.15
  10/20/2017 02:00      45    31    0.00          6      290       26      29.54    12.15
  10/20/2017 01:00      45    32    0.00          8      278       19      29.56    12.15
  10/19/2017 24:00      45    33    0.00         10      265       25      29.59    12.16
  10/19/2017 23:00      44    34    0.00          9      267       17      29.60    12.16
  10/19/2017 22:00      44    33    0.00          8      252       18      29.61    12.17
  10/19/2017 21:00      45    33    0.00          7      275       16      29.62    12.17
  10/19/2017 20:00      44    32    0.00          9      240       16      29.64    12.19
  10/19/2017 19:00      44    41    4.89          7      262       17      29.64    12.20
  10/19/2017 18:00      46    38   65.92         10      223       22      29.66    12.23
  10/19/2017 17:00      46    35  117.50          7      269       18      29.67    12.27
  10/19/2017 16:00      46    41  333.70          6      258       14      29.67    12.37
  10/19/2017 15:00      44    42  253.30          8      308       19      29.68    12.35


CLICK HERE TO VIEW GRAPH